Time;durP1;ratioP1;P1;durP2;ratioP2;P2;SDS_P1;SDS_P2;PMS_P1;PMS_P2;Temp;Humidity;BMP_temperature;BMP_pressure;BME280_temperature;BME280_humidity;BME280_pressure;Samples;Min_cycle;Max_cycle;Signal;HPM_P1;HPM_P2
2021/09/28 00:00:11;;;;;;;2.60;1.02;;;12.60;91.90;;;;;;2048092;28;20040;-89
2021/09/28 00:01:14;;;;;;;2.78;1.25;;;12.60;91.90;;;;;;2048603;28;20039;-89
2021/09/28 00:02:15;;;;;;;2.58;0.90;;;12.60;91.80;;;;;;2052398;28;20097;-89
2021/09/28 00:03:16;;;;;;;2.00;0.98;;;12.60;91.80;;;;;;2037631;29;20040;-90
2021/09/28 00:04:17;;;;;;;3.75;1.15;;;12.60;91.80;;;;;;2044302;29;20164;-90
2021/09/28 00:05:17;;;;;;;2.33;0.98;;;12.60;91.90;;;;;;2033762;29;20585;-89
2021/09/28 00:06:18;;;;;;;2.00;1.05;;;12.60;91.80;;;;;;2031394;29;20135;-89
2021/09/28 00:07:18;;;;;;;2.65;1.27;;;12.60;91.90;;;;;;2046860;28;20031;-89
2021/09/28 00:08:19;;;;;;;2.42;1.10;;;12.50;91.80;;;;;;2056281;28;20043;-90
2021/09/28 00:09:20;;;;;;;2.75;1.10;;;12.60;91.80;;;;;;2056261;28;20070;-89
2021/09/28 00:10:20;;;;;;;4.38;1.40;;;12.60;91.80;;;;;;2066499;28;20153;-90
2021/09/28 00:11:21;;;;;;;3.55;1.10;;;12.60;91.80;;;;;;2048504;28;20441;-89
2021/09/28 00:12:22;;;;;;;2.92;1.08;;;12.60;91.80;;;;;;2040401;29;20047;-90
2021/09/28 00:13:22;;;;;;;3.03;1.10;;;12.60;91.80;;;;;;2049772;28;20498;-89
2021/09/28 00:14:24;;;;;;;2.60;1.10;;;12.60;91.80;;;;;;2058804;28;20097;-89
2021/09/28 00:15:24;;;;;;;4.13;1.20;;;12.60;91.80;;;;;;2060377;28;20125;-89
2021/09/28 00:16:25;;;;;;;2.25;1.25;;;12.50;91.80;;;;;;2048456;28;20039;-89
2021/09/28 00:17:26;;;;;;;2.13;1.13;;;12.50;91.80;;;;;;2048218;28;20041;-89
2021/09/28 00:18:26;;;;;;;2.53;1.02;;;12.50;91.80;;;;;;2054733;28;20071;-89
2021/09/28 00:19:27;;;;;;;3.42;1.10;;;12.50;91.80;;;;;;2055167;28;22227;-89
2021/09/28 00:20:29;;;;;;;4.00;1.30;;;12.50;91.80;;;;;;2049567;28;20406;-89
2021/09/28 00:21:30;;;;;;;2.47;1.20;;;12.50;91.80;;;;;;2046638;28;20079;-90
2021/09/28 00:22:31;;;;;;;4.50;1.00;;;12.50;91.80;;;;;;2048679;28;20486;-89
2021/09/28 00:23:31;;;;;;;2.80;1.10;;;12.50;91.80;;;;;;2056436;28;20039;-90
2021/09/28 00:24:33;;;;;;;2.47;0.95;;;12.50;91.80;;;;;;2056140;28;20031;-89
2021/09/28 00:25:34;;;;;;;2.05;1.20;;;12.50;91.80;;;;;;2064533;28;20082;-90
2021/09/28 00:26:35;;;;;;;4.13;1.30;;;12.50;91.80;;;;;;2050635;28;20035;-89
2021/09/28 00:27:36;;;;;;;3.67;1.30;;;12.50;91.80;;;;;;2051503;28;20537;-90
2021/09/28 00:28:37;;;;;;;4.60;1.20;;;12.50;91.80;;;;;;2046075;28;20159;-90
2021/09/28 00:29:37;;;;;;;3.03;1.42;;;12.50;91.80;;;;;;2043183;29;20040;-89
2021/09/28 00:30:38;;;;;;;2.78;1.00;;;12.50;91.80;;;;;;2050942;29;20191;-89
2021/09/28 00:31:39;;;;;;;2.28;1.08;;;12.50;91.80;;;;;;2048842;28;20502;-90
2021/09/28 00:32:40;;;;;;;1.98;1.05;;;12.50;91.80;;;;;;2050062;28;20035;-89
2021/09/28 00:33:41;;;;;;;3.38;1.10;;;12.50;91.80;;;;;;2056872;28;20050;-90
2021/09/28 00:34:42;;;;;;;2.22;1.13;;;12.50;91.80;;;;;;2054023;28;20387;-90
2021/09/28 00:35:43;;;;;;;2.60;1.00;;;12.50;91.80;;;;;;2053126;28;20039;-89
2021/09/28 00:36:44;;;;;;;4.50;1.10;;;12.40;91.70;;;;;;2048091;29;20036;-89
2021/09/28 00:37:44;;;;;;;3.47;1.20;;;12.40;91.80;;;;;;2032132;29;20550;-90
2021/09/28 00:38:45;;;;;;;3.17;1.40;;;12.40;91.80;;;;;;2028816;29;20150;-90
2021/09/28 00:39:46;;;;;;;2.97;1.23;;;12.40;92.00;;;;;;2046175;28;20450;-90
2021/09/28 00:40:46;;;;;;;1.88;1.00;;;12.40;91.80;;;;;;2054410;28;20034;-89
2021/09/28 00:41:47;;;;;;;1.92;1.17;;;12.40;91.80;;;;;;2056782;28;20536;-89
2021/09/28 00:42:47;;;;;;;2.53;1.15;;;12.40;91.80;;;;;;2056346;28;20186;-89
2021/09/28 00:43:53;;;;;;;2.38;1.20;;;12.40;91.80;;;;;;2057897;28;20090;-90
2021/09/28 00:44:53;;;;;;;3.80;1.30;;;12.40;91.80;;;;;;2048671;28;20082;-90
2021/09/28 00:45:54;;;;;;;3.58;1.38;;;12.40;91.80;;;;;;2056405;28;20058;-89
2021/09/28 00:46:55;;;;;;;2.78;1.20;;;12.40;91.80;;;;;;2056257;28;20098;-90
2021/09/28 00:47:55;;;;;;;4.55;1.38;;;12.40;91.80;;;;;;2057859;28;20047;-89
2021/09/28 00:48:56;;;;;;;2.75;1.30;;;12.40;91.80;;;;;;2057301;28;20122;-89
2021/09/28 00:49:57;;;;;;;2.78;0.93;;;12.40;91.80;;;;;;2052545;28;20474;-89
2021/09/28 00:50:58;;;;;;;4.07;1.20;;;12.40;91.80;;;;;;2040021;29;20121;-89
2021/09/28 00:51:59;;;;;;;3.25;1.15;;;12.40;91.80;;;;;;2042049;29;20506;-90
2021/09/28 00:53:03;;;;;;;3.30;1.15;;;12.30;91.70;;;;;;2032953;29;20047;-89
2021/09/28 00:54:04;;;;;;;3.15;1.08;;;12.40;91.80;;;;;;2026908;29;20076;-89
2021/09/28 00:55:06;;;;;;;2.15;1.05;;;12.30;91.80;;;;;;2034263;29;20527;-89
2021/09/28 00:56:15;;;;;;;2.90;1.30;;;12.30;91.70;;;;;;2046049;28;20047;-90
2021/09/28 00:57:18;;;;;;;2.20;1.10;;;12.30;91.80;;;;;;2049982;28;20042;-89
2021/09/28 00:58:18;;;;;;;3.70;1.20;;;12.30;91.80;;;;;;2053256;28;20113;-89
2021/09/28 00:59:20;;;;;;;2.90;1.10;;;12.30;91.80;;;;;;2046099;29;20415;-89
2021/09/28 01:00:21;;;;;;;3.88;1.10;;;12.30;91.70;;;;;;2043496;28;20039;-89
2021/09/28 01:01:21;;;;;;;2.28;1.25;;;12.30;91.70;;;;;;2055401;28;20422;-90
2021/09/28 01:02:23;;;;;;;3.00;1.10;;;12.30;91.70;;;;;;2063828;28;20050;-90
2021/09/28 01:03:24;;;;;;;4.00;1.17;;;12.30;91.80;;;;;;2063993;28;20030;-90
2021/09/28 01:04:25;;;;;;;4.18;1.25;;;12.30;91.80;;;;;;2054895;28;20545;-90
2021/09/28 01:05:26;;;;;;;3.20;1.00;;;12.30;91.80;;;;;;2048094;28;20042;-89
2021/09/28 01:06:27;;;;;;;3.05;1.20;;;12.20;91.80;;;;;;2047826;28;20046;-89
2021/09/28 01:07:27;;;;;;;3.60;1.20;;;12.20;91.80;;;;;;2048301;28;20035;-90
2021/09/28 01:08:28;;;;;;;3.63;1.23;;;12.20;91.80;;;;;;2048493;28;20044;-89
2021/09/28 01:09:31;;;;;;;5.38;1.27;;;12.20;91.80;;;;;;2044288;29;20031;-90
2021/09/28 01:10:32;;;;;;;3.08;1.25;;;12.20;91.80;;;;;;2056400;28;20534;-89
2021/09/28 01:11:33;;;;;;;4.75;1.30;;;12.20;91.80;;;;;;2053214;28;20069;-90
2021/09/28 01:12:34;;;;;;;4.15;1.60;;;12.20;91.80;;;;;;2045967;29;20075;-90
2021/09/28 01:13:34;;;;;;;4.50;1.65;;;12.20;91.80;;;;;;2049351;28;20505;-90
2021/09/28 01:14:36;;;;;;;3.03;1.15;;;12.20;91.80;;;;;;2047408;28;20051;-88
2021/09/28 01:15:37;;;;;;;4.43;1.42;;;12.20;91.80;;;;;;2047248;28;20036;-89
2021/09/28 01:16:37;;;;;;;3.65;1.25;;;12.20;91.80;;;;;;2049717;28;20512;-89
2021/09/28 01:17:38;;;;;;;2.22;1.02;;;12.20;91.80;;;;;;2040706;28;20031;-90
2021/09/28 01:18:41;;;;;;;2.25;1.10;;;12.20;91.80;;;;;;2055800;28;20045;-89
2021/09/28 01:19:42;;;;;;;3.17;1.30;;;12.20;91.80;;;;;;2057830;28;20038;-89
2021/09/28 01:20:43;;;;;;;3.75;1.33;;;12.20;91.70;;;;;;2063019;28;20027;-89
2021/09/28 01:21:45;;;;;;;3.38;1.30;;;12.20;91.70;;;;;;2047706;29;20489;-89
2021/09/28 01:22:46;;;;;;;4.20;1.17;;;12.20;91.70;;;;;;2041793;28;20034;-90
2021/09/28 01:23:47;;;;;;;2.35;1.10;;;12.20;91.70;;;;;;2057412;28;20489;-90
2021/09/28 01:24:48;;;;;;;2.60;1.20;;;12.20;91.70;;;;;;2047888;28;20035;-89
2021/09/28 01:25:50;;;;;;;2.30;1.10;;;12.20;91.70;;;;;;2040546;28;20146;-90
2021/09/28 01:26:50;;;;;;;2.92;1.25;;;12.20;91.70;;;;;;2056192;28;20026;-90
2021/09/28 01:27:51;;;;;;;2.80;1.30;;;12.20;91.70;;;;;;2057408;28;20043;-88
2021/09/28 01:28:53;;;;;;;4.30;1.50;;;12.20;91.70;;;;;;2049052;29;20059;-90
2021/09/28 01:29:54;;;;;;;2.45;1.20;;;12.20;91.70;;;;;;2047003;28;20042;-89
2021/09/28 01:30:56;;;;;;;3.60;1.33;;;12.20;91.70;;;;;;2053786;28;20107;-89
2021/09/28 01:31:56;;;;;;;2.70;1.10;;;12.20;91.70;;;;;;2055644;28;20086;-89
2021/09/28 01:32:57;;;;;;;2.30;1.10;;;12.10;91.60;;;;;;2056206;28;20027;-89
2021/09/28 01:33:58;;;;;;;3.00;1.05;;;12.10;91.60;;;;;;2064388;28;20046;-90
2021/09/28 01:34:59;;;;;;;4.03;1.23;;;12.10;91.70;;;;;;2046362;28;20040;-90
2021/09/28 01:36:00;;;;;;;3.88;1.17;;;12.10;91.70;;;;;;2040508;28;20518;-90
2021/09/28 01:37:01;;;;;;;3.25;1.23;;;12.10;91.70;;;;;;2039772;29;20071;-89
2021/09/28 01:38:02;;;;;;;3.60;1.30;;;12.00;91.70;;;;;;2049073;28;20086;-89
2021/09/28 01:39:03;;;;;;;3.10;1.10;;;12.10;91.80;;;;;;2038187;29;20036;-90
2021/09/28 01:40:05;;;;;;;2.95;1.00;;;12.00;91.70;;;;;;2039638;29;20044;-90
2021/09/28 01:41:05;;;;;;;3.17;1.05;;;12.10;91.80;;;;;;2045611;28;20040;-89
2021/09/28 01:42:06;;;;;;;4.07;1.20;;;12.10;91.80;;;;;;2061892;28;20086;-89
2021/09/28 01:43:11;;;;;;;3.75;1.10;;;12.00;91.80;;;;;;2049358;28;20090;-89
2021/09/28 01:44:15;;;;;;;3.00;1.35;;;12.10;91.80;;;;;;2050279;28;20135;-89
2021/09/28 01:45:16;;;;;;;3.22;1.20;;;12.00;91.80;;;;;;2063435;28;20440;-90
2021/09/28 01:46:17;;;;;;;4.57;1.33;;;12.00;91.80;;;;;;2049808;28;20067;-89
2021/09/28 01:47:19;;;;;;;3.47;1.10;;;12.00;91.80;;;;;;2041782;29;20059;-90
2021/09/28 01:48:20;;;;;;;4.25;1.20;;;12.00;92.10;;;;;;2058381;28;20038;-90
2021/09/28 01:49:20;;;;;;;3.65;1.23;;;12.00;91.80;;;;;;2047562;28;20074;-89
2021/09/28 01:50:21;;;;;;;4.28;1.33;;;12.00;91.80;;;;;;2049084;28;20047;-90
2021/09/28 01:51:22;;;;;;;3.15;1.00;;;12.00;91.80;;;;;;2040230;29;20038;-90
2021/09/28 01:52:23;;;;;;;2.85;1.23;;;12.00;91.80;;;;;;2032363;28;20040;-90
2021/09/28 01:53:23;;;;;;;3.30;1.30;;;12.00;91.80;;;;;;2057253;28;20053;-89
2021/09/28 01:54:24;;;;;;;3.13;1.30;;;12.00;91.80;;;;;;2054568;28;20072;-90
2021/09/28 01:55:25;;;;;;;3.75;1.33;;;12.00;91.80;;;;;;2056940;28;20047;-90
2021/09/28 01:56:26;;;;;;;4.30;1.20;;;12.00;91.80;;;;;;2064971;28;20034;-90
2021/09/28 01:57:27;;;;;;;1.48;0.80;;;12.00;91.80;;;;;;2055501;28;20035;-90
2021/09/28 01:58:27;;;;;;;3.22;0.98;;;12.00;91.80;;;;;;2051924;28;20035;-89
2021/09/28 01:59:28;;;;;;;3.83;1.10;;;12.00;91.80;;;;;;2040010;29;20040;-90
2021/09/28 02:00:29;;;;;;;3.00;1.00;;;11.90;91.80;;;;;;2040331;29;20517;-90
2021/09/28 02:01:30;;;;;;;4.55;1.30;;;12.00;91.80;;;;;;2055669;28;20051;-90
2021/09/28 02:02:30;;;;;;;2.97;0.95;;;12.00;91.80;;;;;;2056476;28;20430;-90
2021/09/28 02:03:31;;;;;;;3.40;1.15;;;12.00;91.80;;;;;;2048964;29;20043;-90
2021/09/28 02:04:31;;;;;;;3.00;1.10;;;12.00;91.80;;;;;;2055605;28;20162;-89
2021/09/28 02:05:32;;;;;;;2.75;1.00;;;11.90;91.80;;;;;;2040001;29;20391;-90
2021/09/28 02:06:39;;;;;;;3.70;1.08;;;11.90;91.80;;;;;;2039518;28;20066;-90
2021/09/28 02:07:40;;;;;;;3.75;1.00;;;11.90;91.80;;;;;;2053605;28;20039;-90
2021/09/28 02:08:41;;;;;;;3.78;1.30;;;12.00;91.80;;;;;;2058864;28;20043;-90
2021/09/28 02:09:41;;;;;;;3.22;1.13;;;11.90;91.80;;;;;;2058690;28;20069;-89
2021/09/28 02:10:42;;;;;;;3.65;1.05;;;11.90;91.80;;;;;;2050955;28;20151;-89
2021/09/28 02:11:42;;;;;;;2.25;0.90;;;11.90;91.80;;;;;;2058695;28;20023;-89
2021/09/28 02:12:44;;;;;;;2.33;0.80;;;11.90;92.00;;;;;;2058228;28;20034;-85
2021/09/28 02:13:44;;;;;;;3.20;1.10;;;11.90;91.80;;;;;;2065963;28;20066;-88
2021/09/28 02:14:45;;;;;;;3.25;1.10;;;11.90;91.80;;;;;;2073991;28;20049;-89
2021/09/28 02:15:46;;;;;;;2.97;0.90;;;11.90;91.80;;;;;;2047172;28;20107;-89
2021/09/28 02:16:46;;;;;;;3.05;1.20;;;11.90;91.80;;;;;;2032197;29;20052;-89
2021/09/28 02:17:47;;;;;;;3.08;1.02;;;11.90;91.80;;;;;;2046751;28;20367;-89
2021/09/28 02:18:48;;;;;;;2.97;1.10;;;12.00;91.80;;;;;;2033868;29;20500;-90
2021/09/28 02:19:49;;;;;;;1.50;0.93;;;11.90;91.80;;;;;;2039340;29;20094;-89
2021/09/28 02:20:49;;;;;;;2.38;1.20;;;11.90;91.80;;;;;;2036091;29;20582;-89
2021/09/28 02:21:50;;;;;;;4.28;1.23;;;11.90;91.80;;;;;;2033520;29;20056;-90
2021/09/28 02:22:50;;;;;;;3.20;1.20;;;11.90;91.80;;;;;;2047333;28;20038;-88
2021/09/28 02:23:51;;;;;;;3.13;1.20;;;11.90;91.80;;;;;;2041546;29;20127;-89
2021/09/28 02:24:52;;;;;;;2.88;1.30;;;11.90;91.80;;;;;;2047590;28;20034;-90
2021/09/28 02:25:53;;;;;;;4.45;1.10;;;11.90;91.80;;;;;;2051470;28;20047;-89
2021/09/28 02:26:54;;;;;;;3.42;1.10;;;11.80;91.80;;;;;;2061268;28;20133;-90
2021/09/28 02:27:55;;;;;;;3.38;1.10;;;11.90;91.80;;;;;;2065060;28;20042;-89
2021/09/28 02:28:55;;;;;;;3.38;1.02;;;11.90;91.80;;;;;;2057214;28;20070;-90
2021/09/28 02:29:57;;;;;;;2.80;0.85;;;11.80;91.80;;;;;;2049083;28;20039;-89
2021/09/28 02:30:57;;;;;;;2.85;1.20;;;11.90;91.80;;;;;;2064838;28;20031;-89
2021/09/28 02:31:58;;;;;;;4.45;1.00;;;11.80;91.80;;;;;;2061321;28;20038;-90
2021/09/28 02:32:58;;;;;;;2.08;1.20;;;11.80;91.80;;;;;;2055825;28;20501;-90
2021/09/28 02:33:59;;;;;;;3.88;1.27;;;11.80;91.80;;;;;;2064894;28;20043;-90
2021/09/28 02:35:00;;;;;;;4.47;1.08;;;11.80;92.10;;;;;;2061388;28;20410;-89
2021/09/28 02:36:01;;;;;;;2.85;1.08;;;11.80;91.80;;;;;;2047316;28;20077;-89
2021/09/28 02:37:04;;;;;;;4.28;1.70;;;11.80;91.80;;;;;;2057146;28;20117;-90
2021/09/28 02:38:04;;;;;;;4.18;1.08;;;11.80;91.80;;;;;;2054840;28;20126;-90
2021/09/28 02:39:09;;;;;;;3.13;1.10;;;11.80;91.80;;;;;;2056009;28;20393;-90
2021/09/28 02:40:10;;;;;;;3.20;1.23;;;11.80;91.80;;;;;;2066582;28;20042;-90
2021/09/28 02:41:11;;;;;;;3.17;1.10;;;11.80;91.80;;;;;;2065193;28;20026;-90
2021/09/28 02:42:12;;;;;;;5.03;1.38;;;11.80;91.80;;;;;;2056389;28;20161;-90
2021/09/28 02:43:13;;;;;;;4.07;1.10;;;11.80;91.80;;;;;;2061132;28;20665;-90
2021/09/28 02:44:16;;;;;;;3.85;1.13;;;11.70;91.80;;;;;;2063919;28;20050;-89
2021/09/28 02:45:17;;;;;;;2.00;0.98;;;11.80;91.80;;;;;;2064835;28;20050;-90
2021/09/28 02:46:18;;;;;;;4.13;1.23;;;11.80;91.80;;;;;;2065354;28;20040;-90
2021/09/28 02:47:19;;;;;;;3.25;0.90;;;11.80;91.80;;;;;;2073332;28;20034;-90
2021/09/28 02:48:19;;;;;;;3.78;1.02;;;11.80;91.80;;;;;;2065113;28;20035;-90
2021/09/28 02:49:20;;;;;;;3.40;1.23;;;11.70;91.80;;;;;;2064269;28;20043;-90
2021/09/28 02:50:21;;;;;;;1.92;0.90;;;11.80;91.80;;;;;;2054889;28;20030;-90
2021/09/28 02:51:22;;;;;;;4.97;1.15;;;11.80;91.80;;;;;;2055110;28;20438;-89
2021/09/28 02:52:22;;;;;;;3.17;1.10;;;11.70;91.80;;;;;;2063392;28;20563;-90
2021/09/28 02:53:23;;;;;;;3.15;0.93;;;11.70;91.80;;;;;;2064883;28;20170;-90
2021/09/28 02:54:23;;;;;;;2.33;0.90;;;11.70;91.80;;;;;;2063530;28;20046;-89
2021/09/28 02:55:24;;;;;;;3.40;1.20;;;11.70;91.80;;;;;;2064640;28;20045;-90
2021/09/28 02:56:25;;;;;;;2.50;1.00;;;11.70;91.80;;;;;;2063336;28;20504;-90
2021/09/28 02:57:25;;;;;;;2.70;1.00;;;11.70;91.80;;;;;;2063110;28;20646;-90
2021/09/28 02:58:26;;;;;;;5.28;1.27;;;11.70;91.80;;;;;;2064759;28;20049;-90
2021/09/28 02:59:27;;;;;;;2.95;1.00;;;11.60;91.80;;;;;;2057040;28;20057;-90
2021/09/28 03:00:27;;;;;;;2.47;0.90;;;11.60;91.80;;;;;;2057051;28;20063;-89
2021/09/28 03:01:28;;;;;;;2.47;1.00;;;11.60;91.80;;;;;;2064614;28;20046;-89
2021/09/28 03:02:29;;;;;;;2.30;0.90;;;11.60;91.80;;;;;;2056786;28;20054;-89
2021/09/28 03:03:29;;;;;;;4.03;1.00;;;11.60;91.80;;;;;;2058880;28;20050;-89
2021/09/28 03:04:30;;;;;;;3.30;1.25;;;11.60;91.80;;;;;;2063565;28;20043;-90
2021/09/28 03:05:31;;;;;;;3.05;1.00;;;11.60;91.90;;;;;;2054936;28;20104;-89
2021/09/28 03:06:32;;;;;;;2.17;0.90;;;11.60;91.90;;;;;;2055248;28;20045;-90
2021/09/28 03:07:33;;;;;;;2.28;1.02;;;11.50;92.10;;;;;;2071744;28;20026;-90
2021/09/28 03:08:33;;;;;;;2.17;1.00;;;11.50;91.90;;;;;;2064436;28;20042;-90
2021/09/28 03:09:34;;;;;;;2.97;1.10;;;11.50;91.90;;;;;;2065247;28;20033;-89
2021/09/28 03:10:40;;;;;;;5.10;1.30;;;11.50;91.90;;;;;;2063587;28;20034;-89
2021/09/28 03:11:40;;;;;;;2.70;0.95;;;11.50;91.90;;;;;;2063551;28;20056;-89
2021/09/28 03:12:41;;;;;;;2.50;1.00;;;11.50;91.90;;;;;;2072438;28;20058;-89
2021/09/28 03:13:41;;;;;;;3.75;1.00;;;11.50;91.90;;;;;;2072051;28;20088;-90
2021/09/28 03:14:42;;;;;;;3.15;1.00;;;11.50;91.90;;;;;;2063059;28;20556;-89
2021/09/28 03:15:43;;;;;;;3.25;1.02;;;11.50;91.90;;;;;;2064704;28;20496;-90
2021/09/28 03:16:43;;;;;;;3.50;1.17;;;11.50;91.90;;;;;;2073301;28;20042;-90
2021/09/28 03:17:44;;;;;;;2.30;0.90;;;11.50;91.90;;;;;;2067304;28;20082;-90
2021/09/28 03:18:45;;;;;;;3.33;1.17;;;11.50;91.90;;;;;;2070308;28;20038;-89
2021/09/28 03:19:46;;;;;;;4.22;1.23;;;11.40;91.90;;;;;;2072161;28;20522;-90
2021/09/28 03:20:46;;;;;;;3.28;1.45;;;11.40;91.90;;;;;;2063543;28;20030;-90
2021/09/28 03:21:48;;;;;;;3.63;1.30;;;11.40;91.90;;;;;;2063688;28;20109;-90
2021/09/28 03:22:49;;;;;;;3.67;0.90;;;11.40;92.00;;;;;;2070721;28;20035;-90
2021/09/28 03:23:49;;;;;;;4.00;1.13;;;11.30;92.00;;;;;;2056834;28;20046;-90
2021/09/28 03:24:50;;;;;;;3.20;1.10;;;11.40;92.00;;;;;;2054295;28;20066;-90
2021/09/28 03:25:51;;;;;;;3.22;0.85;;;11.40;92.00;;;;;;2055343;28;20092;-90
2021/09/28 03:26:52;;;;;;;2.88;1.00;;;11.30;92.00;;;;;;2047374;28;20035;-90
2021/09/28 03:27:53;;;;;;;2.95;1.10;;;11.30;92.00;;;;;;2036825;29;20439;-89
2021/09/28 03:28:54;;;;;;;2.63;0.98;;;11.30;92.00;;;;;;2046626;28;20031;-89
2021/09/28 03:29:54;;;;;;;3.40;1.00;;;11.30;92.00;;;;;;2065426;28;20043;-89
2021/09/28 03:30:55;;;;;;;4.22;0.95;;;11.30;92.00;;;;;;2068993;28;20500;-90
2021/09/28 03:31:55;;;;;;;4.03;0.95;;;11.30;92.00;;;;;;2056377;28;20038;-89
2021/09/28 03:32:56;;;;;;;4.82;1.15;;;11.30;92.00;;;;;;2061833;28;20047;-89
2021/09/28 03:33:57;;;;;;;3.10;0.93;;;11.30;92.00;;;;;;2057850;28;20573;-90
2021/09/28 03:34:57;;;;;;;3.72;1.10;;;11.30;92.00;;;;;;2050756;28;20134;-89
2021/09/28 03:35:58;;;;;;;3.22;1.08;;;11.30;92.00;;;;;;2058808;28;20046;-90
2021/09/28 03:36:59;;;;;;;4.50;1.40;;;11.30;92.00;;;;;;2060516;28;20045;-90
2021/09/28 03:38:00;;;;;;;2.83;0.90;;;11.30;92.00;;;;;;2052465;29;20039;-90
2021/09/28 03:39:00;;;;;;;3.08;1.00;;;11.40;92.00;;;;;;2060309;28;20043;-90
2021/09/28 03:40:01;;;;;;;2.67;1.00;;;11.30;92.00;;;;;;2061811;28;20432;-89
2021/09/28 03:41:03;;;;;;;3.38;0.95;;;11.30;92.00;;;;;;2059525;28;20038;-90
2021/09/28 03:42:04;;;;;;;2.17;0.75;;;11.30;92.00;;;;;;2067690;28;20136;-89
2021/09/28 03:43:06;;;;;;;1.70;0.80;;;11.30;92.00;;;;;;2070095;28;20026;-90
2021/09/28 03:44:07;;;;;;;2.08;0.85;;;11.30;92.00;;;;;;2062111;28;20046;-89
2021/09/28 03:45:08;;;;;;;2.58;0.90;;;11.30;92.00;;;;;;2059149;28;20039;-90
2021/09/28 03:46:09;;;;;;;3.53;0.82;;;11.30;92.00;;;;;;2053039;28;20040;-90
2021/09/28 03:47:10;;;;;;;2.60;0.98;;;11.30;92.00;;;;;;2051774;28;20046;-90
2021/09/28 03:48:11;;;;;;;3.33;1.00;;;11.30;92.00;;;;;;2053443;28;20046;-90
2021/09/28 03:49:11;;;;;;;4.75;0.90;;;11.30;92.00;;;;;;2056534;28;20062;-88
2021/09/28 03:50:12;;;;;;;1.95;0.82;;;11.30;92.00;;;;;;2057699;28;20043;-89
2021/09/28 03:51:13;;;;;;;4.55;1.30;;;11.30;92.00;;;;;;2065430;28;20073;-90
2021/09/28 03:52:13;;;;;;;4.20;1.00;;;11.30;92.00;;;;;;2056472;28;20069;-89
2021/09/28 03:53:14;;;;;;;2.63;0.80;;;11.30;91.90;;;;;;2050152;28;20409;-89
2021/09/28 03:54:15;;;;;;;4.32;1.00;;;11.30;91.90;;;;;;2040450;29;20035;-89
2021/09/28 03:55:19;;;;;;;4.43;1.17;;;11.30;91.90;;;;;;2042182;29;20036;-89
2021/09/28 03:56:20;;;;;;;4.75;1.08;;;11.30;91.90;;;;;;2049015;28;20042;-89
2021/09/28 03:57:21;;;;;;;3.63;1.40;;;11.30;91.90;;;;;;2034086;29;20042;-89
2021/09/28 03:58:22;;;;;;;3.88;0.98;;;11.30;92.00;;;;;;2037739;29;20045;-90
2021/09/28 03:59:22;;;;;;;2.55;1.00;;;11.30;92.00;;;;;;2029535;29;20489;-89
2021/09/28 04:00:23;;;;;;;4.28;1.10;;;11.30;92.10;;;;;;2034370;29;20489;-89
2021/09/28 04:01:24;;;;;;;1.98;0.80;;;11.30;91.90;;;;;;2039253;29;20521;-90
2021/09/28 04:02:24;;;;;;;3.20;0.90;;;11.30;91.90;;;;;;2042611;28;20585;-89
2021/09/28 04:03:25;;;;;;;3.95;1.00;;;11.30;91.90;;;;;;2050257;28;20429;-89
2021/09/28 04:04:25;;;;;;;2.08;0.90;;;11.30;91.90;;;;;;2040857;29;20039;-89
2021/09/28 04:05:26;;;;;;;2.60;0.70;;;11.30;91.90;;;;;;2040531;29;20136;-89
2021/09/28 04:06:27;;;;;;;2.22;0.80;;;11.30;91.90;;;;;;2048374;29;20043;-89
2021/09/28 04:07:28;;;;;;;3.15;1.00;;;11.30;91.90;;;;;;2034656;29;20139;-89
2021/09/28 04:08:28;;;;;;;3.05;0.90;;;11.30;91.90;;;;;;2033186;29;20660;-89
2021/09/28 04:09:29;;;;;;;2.92;1.00;;;11.30;91.90;;;;;;2046031;28;20054;-90
2021/09/28 04:10:30;;;;;;;3.30;1.00;;;11.30;91.90;;;;;;2045959;29;20570;-89
2021/09/28 04:11:30;;;;;;;4.40;1.17;;;11.30;91.90;;;;;;2057652;28;20042;-89
2021/09/28 04:12:31;;;;;;;5.03;1.20;;;11.30;91.90;;;;;;2065611;28;20061;-90
2021/09/28 04:13:32;;;;;;;2.88;1.00;;;11.30;91.90;;;;;;2066756;28;20038;-90
2021/09/28 04:14:33;;;;;;;4.22;1.10;;;11.30;91.90;;;;;;2064520;28;20038;-89
2021/09/28 04:15:40;;;;;;;4.13;0.90;;;11.30;91.90;;;;;;2065008;28;20081;-89
2021/09/28 04:16:40;;;;;;;3.90;1.00;;;11.30;92.20;;;;;;2053572;28;20047;-89
2021/09/28 04:17:41;;;;;;;2.72;0.90;;;11.30;91.90;;;;;;2042627;29;20414;-90
2021/09/28 04:18:43;;;;;;;3.78;0.88;;;11.30;91.90;;;;;;2050345;28;20134;-89
2021/09/28 04:19:44;;;;;;;4.00;1.05;;;11.30;91.90;;;;;;2064968;28;20041;-89
2021/09/28 04:20:45;;;;;;;3.67;0.90;;;11.30;91.90;;;;;;2064395;28;20688;-89
2021/09/28 04:21:46;;;;;;;3.17;0.88;;;11.30;91.90;;;;;;2064644;28;20470;-89
2021/09/28 04:22:47;;;;;;;2.20;0.85;;;11.30;91.90;;;;;;2065900;28;20065;-90
2021/09/28 04:23:49;;;;;;;3.72;0.93;;;11.30;91.90;;;;;;2066674;28;20042;-90
2021/09/28 04:24:51;;;;;;;2.65;1.00;;;11.30;91.90;;;;;;2064548;28;20042;-89
2021/09/28 04:25:51;;;;;;;1.98;0.80;;;11.30;91.90;;;;;;2064307;28;20042;-90
2021/09/28 04:26:52;;;;;;;3.08;1.00;;;11.30;91.90;;;;;;2065078;28;20086;-89
2021/09/28 04:27:53;;;;;;;3.72;0.98;;;11.30;91.90;;;;;;2066170;28;20126;-90
2021/09/28 04:28:53;;;;;;;2.35;0.90;;;11.30;91.90;;;;;;2049329;29;20082;-90
2021/09/28 04:29:54;;;;;;;2.50;0.90;;;11.30;91.90;;;;;;2032857;29;20463;-90
2021/09/28 04:30:55;;;;;;;3.85;0.80;;;11.20;91.90;;;;;;2040527;29;20040;-90
2021/09/28 04:31:55;;;;;;;5.25;1.17;;;11.30;91.90;;;;;;2055677;28;20475;-90
2021/09/28 04:32:56;;;;;;;3.80;0.90;;;11.20;91.90;;;;;;2049363;28;20082;-89
2021/09/28 04:33:57;;;;;;;2.35;0.80;;;11.30;91.90;;;;;;2042020;29;20044;-90
2021/09/28 04:34:57;;;;;;;2.50;0.82;;;11.20;91.90;;;;;;2032810;28;20040;-89
2021/09/28 04:35:58;;;;;;;2.15;0.70;;;11.30;91.90;;;;;;2046071;28;20050;-90
2021/09/28 04:36:59;;;;;;;3.47;0.90;;;11.20;91.90;;;;;;2046134;28;20121;-89
2021/09/28 04:38:00;;;;;;;2.78;1.08;;;11.20;91.90;;;;;;2056424;28;20110;-90
2021/09/28 04:39:00;;;;;;;3.30;0.95;;;11.20;91.90;;;;;;2057290;28;20123;-90
2021/09/28 04:40:01;;;;;;;2.97;0.80;;;11.20;91.90;;;;;;2056480;28;20405;-90
2021/09/28 04:41:02;;;;;;;2.40;1.00;;;11.20;92.20;;;;;;2047464;28;20035;-89
2021/09/28 04:42:03;;;;;;;3.67;0.82;;;11.20;91.90;;;;;;2032853;29;20052;-90
2021/09/28 04:43:03;;;;;;;3.88;0.90;;;11.20;91.90;;;;;;2032279;29;20391;-89
2021/09/28 04:44:04;;;;;;;2.83;1.00;;;11.20;92.00;;;;;;2049539;29;20039;-89
2021/09/28 04:45:06;;;;;;;3.70;0.73;;;11.20;91.90;;;;;;2048709;28;20035;-90
2021/09/28 04:46:07;;;;;;;2.10;0.90;;;11.20;91.90;;;;;;2052380;28;20055;-89
2021/09/28 04:47:08;;;;;;;3.70;1.00;;;11.20;91.90;;;;;;2049745;29;20032;-89
2021/09/28 04:48:09;;;;;;;3.17;1.00;;;11.20;91.90;;;;;;2044821;28;20035;-89
2021/09/28 04:49:09;;;;;;;3.22;0.90;;;11.20;91.90;;;;;;2041469;29;20036;-90
2021/09/28 04:50:10;;;;;;;3.53;0.90;;;11.20;91.90;;;;;;2038463;28;20043;-89
2021/09/28 04:51:11;;;;;;;2.88;0.88;;;11.20;91.90;;;;;;2058409;28;20035;-90
2021/09/28 04:52:12;;;;;;;1.60;0.77;;;11.20;91.90;;;;;;2058372;28;20493;-89
2021/09/28 04:53:13;;;;;;;4.80;0.82;;;11.10;91.90;;;;;;2049245;29;20070;-90
2021/09/28 04:54:13;;;;;;;1.77;0.70;;;11.10;91.90;;;;;;2032138;29;20036;-89
2021/09/28 04:55:14;;;;;;;3.08;0.85;;;11.10;92.00;;;;;;2040861;29;20134;-90
2021/09/28 04:56:15;;;;;;;2.45;0.68;;;11.10;92.00;;;;;;2039001;29;20032;-90
2021/09/28 04:57:16;;;;;;;4.35;1.02;;;11.10;92.00;;;;;;2040721;28;20044;-90
2021/09/28 04:58:16;;;;;;;2.65;0.70;;;11.10;92.00;;;;;;2041856;29;20031;-90
2021/09/28 04:59:17;;;;;;;2.13;0.68;;;11.10;92.00;;;;;;2051333;28;20075;-90
2021/09/28 05:00:18;;;;;;;1.65;0.70;;;11.10;92.00;;;;;;2074001;28;20061;-82
2021/09/28 05:01:19;;;;;;;3.53;0.90;;;11.10;92.00;;;;;;2067852;28;20062;-91
2021/09/28 05:02:19;;;;;;;3.63;0.90;;;11.10;92.00;;;;;;2058204;28;20047;-90
2021/09/28 05:03:20;;;;;;;2.47;0.85;;;11.10;92.00;;;;;;2064879;28;20038;-89
2021/09/28 05:04:21;;;;;;;3.47;1.10;;;11.10;92.00;;;;;;2053909;28;20046;-89
2021/09/28 05:05:21;;;;;;;3.17;0.90;;;11.10;92.00;;;;;;2048496;28;20039;-89
2021/09/28 05:06:22;;;;;;;4.90;1.00;;;11.10;92.00;;;;;;2049104;29;20475;-89
2021/09/28 05:07:23;;;;;;;4.40;1.00;;;11.10;92.00;;;;;;2055096;28;20034;-89
2021/09/28 05:08:23;;;;;;;1.75;0.70;;;11.10;92.00;;;;;;2055838;28;20049;-89
2021/09/28 05:09:24;;;;;;;3.38;0.90;;;11.10;92.00;;;;;;2044167;29;20127;-88
2021/09/28 05:10:25;;;;;;;4.72;1.00;;;11.10;92.00;;;;;;2045546;29;20249;-88
2021/09/28 05:11:25;;;;;;;4.20;0.90;;;11.10;92.00;;;;;;2049620;29;20054;-89
2021/09/28 05:12:26;;;;;;;2.67;0.93;;;11.10;92.00;;;;;;2046862;29;20050;-88
2021/09/28 05:13:27;;;;;;;3.42;0.90;;;11.10;92.00;;;;;;2039666;29;20114;-89
2021/09/28 05:14:27;;;;;;;2.13;0.80;;;11.10;92.00;;;;;;2040489;29;20082;-88
2021/09/28 05:15:28;;;;;;;3.42;0.90;;;11.10;92.00;;;;;;2050596;28;20544;-89
2021/09/28 05:16:29;;;;;;;2.65;0.70;;;11.00;92.00;;;;;;2060253;28;20042;-89
2021/09/28 05:17:29;;;;;;;2.10;0.88;;;11.00;92.00;;;;;;2055025;28;20031;-89